createdAt,value
2023-05-21T00:00:21.294Z,97609.00
2023-05-21T00:05:24.204Z,97608.13
2023-05-21T00:10:26.888Z,97599.31
2023-05-21T00:15:29.112Z,97599.34
2023-05-21T00:20:32.519Z,97594.56
2023-05-21T00:25:35.134Z,97596.47
2023-05-21T00:30:37.593Z,97582.88
2023-05-21T00:35:40.272Z,97585.81
2023-05-21T00:40:42.764Z,97566.53
2023-05-21T00:45:46.891Z,97568.63
2023-05-21T00:50:49.738Z,97568.03
2023-05-21T00:55:51.998Z,97564.28
2023-05-21T01:00:58.248Z,97561.28
2023-05-21T01:06:00.482Z,97564.88
2023-05-21T01:11:06.279Z,97561.41
2023-05-21T01:16:11.164Z,97556.19
2023-05-21T01:21:17.531Z,97551.53
2023-05-21T01:26:19.752Z,97553.38
2023-05-21T01:31:50.446Z,97546.88
2023-05-21T01:37:14.884Z,97548.09
2023-05-21T01:42:23.069Z,97541.88
2023-05-21T01:47:29.984Z,97544.50
2023-05-21T01:52:32.150Z,97547.44
2023-05-21T01:57:34.274Z,97542.03
2023-05-21T02:02:36.799Z,97542.97
2023-05-21T02:07:40.517Z,97540.09
2023-05-21T02:12:43.493Z,97541.63
2023-05-21T02:17:52.903Z,97537.59
2023-05-21T02:22:55.181Z,97536.66
2023-05-21T02:27:57.336Z,97540.50
2023-05-21T02:32:59.493Z,97535.56
2023-05-21T02:38:03.235Z,97527.84
2023-05-21T02:43:06.350Z,97531.41
2023-05-21T02:48:09.443Z,97525.59
2023-05-21T02:53:16.663Z,97528.66
2023-05-21T02:58:18.977Z,97527.75
2023-05-21T03:03:21.297Z,97521.28
2023-05-21T03:08:24.930Z,97515.88
2023-05-21T03:13:27.558Z,97516.28
2023-05-21T03:18:29.777Z,97508.97
2023-05-21T03:23:32.197Z,97511.03
2023-05-21T03:28:35.745Z,97504.16
2023-05-21T03:33:38.054Z,97506.94
2023-05-21T03:38:53.280Z,97503.22
2023-05-21T03:43:56.109Z,97500.34
2023-05-21T03:49:02.783Z,97500.34
2023-05-21T03:54:07.427Z,97518.03
2023-05-21T03:59:12.189Z,97519.06
2023-05-21T04:04:15.016Z,97517.72
2023-05-21T04:09:17.437Z,97526.59
2023-05-21T04:14:19.643Z,97526.06
2023-05-21T04:19:22.082Z,97535.19
2023-05-21T04:24:26.030Z,97531.69
2023-05-21T04:29:54.937Z,97549.13
2023-05-21T04:35:01.254Z,97548.53
2023-05-21T04:40:04.121Z,97557.75
2023-05-21T04:45:07.419Z,97549.84
2023-05-21T04:50:12.857Z,97563.56
2023-05-21T04:55:15.184Z,97552.16
2023-05-21T05:00:17.757Z,97565.44
2023-05-21T05:05:21.198Z,97561.50
2023-05-21T05:10:23.487Z,97568.44
2023-05-21T05:15:27.590Z,97558.22
2023-05-21T05:20:29.844Z,97559.84
2023-05-21T05:25:31.977Z,97559.22
2023-05-21T05:30:35.763Z,97567.03
2023-05-21T05:35:49.630Z,97555.72
2023-05-21T05:40:52.339Z,97555.59
2023-05-21T05:45:54.588Z,97552.34
2023-05-21T05:50:57.328Z,97561.34
2023-05-21T05:56:01.392Z,97570.31
2023-05-21T06:01:06.266Z,97569.28
2023-05-21T06:06:08.771Z,97562.84
2023-05-21T06:11:11.689Z,97566.00
2023-05-21T06:16:14.264Z,97570.84
2023-05-21T06:21:17.022Z,97573.13
2023-05-21T06:26:20.588Z,97564.22
2023-05-21T06:31:24.827Z,97575.38
2023-05-21T06:36:30.221Z,97565.34
2023-05-21T06:41:33.189Z,97573.56
2023-05-21T06:46:39.221Z,97559.59
2023-05-21T06:51:43.894Z,97564.94
2023-05-21T06:56:48.028Z,97567.19
2023-05-21T07:01:51.069Z,97570.06
2023-05-21T07:06:53.750Z,97574.09
2023-05-21T07:11:56.111Z,97577.38
2023-05-21T07:16:58.640Z,97575.88
2023-05-21T07:22:00.938Z,97575.63
2023-05-21T07:27:11.285Z,97585.66
2023-05-21T07:32:20.658Z,97575.84
2023-05-21T07:37:23.760Z,97579.22
2023-05-21T07:42:27.064Z,97577.59
2023-05-21T07:47:31.624Z,97565.91
2023-05-21T07:52:35.010Z,97566.63
2023-05-21T07:57:37.555Z,97560.78
2023-05-21T08:02:44.412Z,97566.91
2023-05-21T08:07:49.149Z,97564.28
2023-05-21T08:12:51.418Z,97561.88
2023-05-21T08:17:54.781Z,97554.41
2023-05-21T08:22:57.504Z,97564.09
2023-05-21T08:27:59.921Z,97563.50
2023-05-21T08:33:03.377Z,97578.94
2023-05-21T08:38:08.657Z,97566.50
2023-05-21T08:43:21.204Z,97571.53
2023-05-21T08:48:24.790Z,97566.16
2023-05-21T08:53:30.215Z,97565.38
2023-05-21T08:58:34.476Z,97575.44
2023-05-21T09:03:40.986Z,97569.78
2023-05-21T09:08:49.863Z,97578.66
2023-05-21T09:14:00.854Z,97562.94
2023-05-21T09:19:20.312Z,97577.91
2023-05-21T09:24:25.668Z,97572.28
2023-05-21T09:29:29.966Z,97578.31
2023-05-21T09:34:32.181Z,97577.53
2023-05-21T09:39:36.381Z,97573.94
2023-05-21T09:44:43.444Z,97580.31
2023-05-21T09:49:46.430Z,97578.81
2023-05-21T09:54:48.547Z,97574.63
2023-05-21T09:59:51.352Z,97576.50
2023-05-21T10:04:57.298Z,97578.81
2023-05-21T10:10:01.371Z,97584.50
2023-05-21T10:15:13.945Z,97586.53
2023-05-21T10:20:17.756Z,97575.78
2023-05-21T10:25:22.782Z,97581.88
2023-05-21T10:30:25.875Z,97584.22
2023-05-21T10:35:29.081Z,97573.94
2023-05-21T10:40:31.660Z,97573.78
2023-05-21T10:46:13.814Z,97566.09
2023-05-21T10:51:25.867Z,97569.31
2023-05-21T10:56:45.164Z,97567.81
2023-05-21T11:01:55.477Z,97558.69
2023-05-21T11:06:59.469Z,97554.66
2023-05-21T11:12:03.247Z,97554.09
2023-05-21T11:17:17.050Z,97560.84
2023-05-21T11:22:28.148Z,97560.78
2023-05-21T11:27:42.934Z,97564.81
2023-05-21T11:33:23.940Z,97561.09
2023-05-21T11:38:31.837Z,97548.25
2023-05-21T11:43:34.134Z,97552.41
2023-05-21T11:48:39.090Z,97543.03
2023-05-21T11:53:44.317Z,97553.03
2023-05-21T11:58:47.162Z,97546.00
2023-05-21T12:03:49.393Z,97545.91
2023-05-21T12:08:58.558Z,97550.09
2023-05-21T12:14:01.386Z,97548.53
2023-05-21T12:19:04.293Z,97552.03
2023-05-21T12:24:06.925Z,97542.97
2023-05-21T12:29:09.330Z,97561.16
2023-05-21T12:34:11.535Z,97550.56
2023-05-21T12:39:15.347Z,97545.13
2023-05-21T12:44:17.685Z,97545.19
2023-05-21T12:49:37.760Z,97556.44
2023-05-21T12:54:44.121Z,97550.88
2023-05-21T12:59:59.172Z,97545.81
2023-05-21T13:05:06.826Z,97551.28
2023-05-21T13:10:09.903Z,97551.06
2023-05-21T13:15:12.633Z,97541.63
2023-05-21T13:20:17.089Z,97541.06
2023-05-21T13:25:25.249Z,97538.31
2023-05-21T13:30:27.547Z,97540.59
2023-05-21T13:35:34.719Z,97539.59
2023-05-21T13:40:39.055Z,97546.88
2023-05-21T13:45:41.473Z,97550.81
2023-05-21T13:50:43.882Z,97545.63
2023-05-21T13:55:46.382Z,97538.06
2023-05-21T14:00:48.589Z,97536.59
2023-05-21T14:05:53.804Z,97544.47
2023-05-21T14:10:56.448Z,97542.31
2023-05-21T14:15:58.771Z,97545.97
2023-05-21T14:21:01.141Z,97538.72
2023-05-21T14:26:03.467Z,97528.88
2023-05-21T14:31:06.990Z,97527.03
2023-05-21T14:36:09.237Z,97527.41
2023-05-21T14:41:11.586Z,97522.63
2023-05-21T14:46:14.335Z,97517.94
2023-05-21T14:51:16.774Z,97514.41
2023-05-21T14:56:21.832Z,97513.69
2023-05-21T15:01:24.391Z,97500.13
2023-05-21T15:06:26.635Z,97511.63
2023-05-21T15:11:28.844Z,97512.97
2023-05-21T15:16:31.495Z,97506.31
2023-05-21T15:21:33.735Z,97504.28
2023-05-21T15:26:35.939Z,97506.94
2023-05-21T15:31:39.692Z,97503.53
2023-05-21T15:36:41.868Z,97503.47
2023-05-21T15:41:44.628Z,97498.06
2023-05-21T15:46:50.022Z,97502.22
2023-05-21T15:51:52.242Z,97498.28
2023-05-21T15:56:54.471Z,97514.13
2023-05-21T16:01:56.886Z,97511.22
2023-05-21T16:06:59.134Z,97506.16
2023-05-21T16:12:01.662Z,97506.94
2023-05-21T16:17:03.901Z,97502.66
2023-05-21T16:22:07.123Z,97510.38
2023-05-21T16:27:10.360Z,97507.59
2023-05-21T16:32:14.303Z,97505.88
2023-05-21T16:37:16.887Z,97504.19
2023-05-21T16:42:19.372Z,97505.56
2023-05-21T16:47:21.819Z,97503.03
2023-05-21T16:52:24.505Z,97494.03
2023-05-21T16:57:26.603Z,97494.25
2023-05-21T17:02:28.842Z,97499.16
2023-05-21T17:07:31.771Z,97498.16
2023-05-21T17:12:33.989Z,97494.31
2023-05-21T17:17:36.317Z,97491.47
2023-05-21T17:22:38.578Z,97489.38
2023-05-21T17:27:40.829Z,97491.78
2023-05-21T17:32:43.302Z,97486.22
2023-05-21T17:37:46.088Z,97496.88
2023-05-21T17:42:48.758Z,97500.78
2023-05-21T17:47:51.031Z,97500.09
2023-05-21T17:52:53.334Z,97495.97
2023-05-21T17:57:55.679Z,97502.88
2023-05-21T18:02:58.854Z,97510.09
2023-05-21T18:08:04.910Z,97508.88
2023-05-21T18:13:07.270Z,97507.19
2023-05-21T18:18:09.566Z,97512.13
2023-05-21T18:23:12.409Z,97515.13
2023-05-21T18:28:14.675Z,97520.22
2023-05-21T18:33:17.270Z,97512.00
2023-05-21T18:38:19.480Z,97513.63
2023-05-21T18:43:21.672Z,97508.19
2023-05-21T18:48:23.848Z,97519.03
2023-05-21T18:53:26.026Z,97514.75
2023-05-21T18:58:29.457Z,97524.31
2023-05-21T19:03:32.309Z,97514.28
2023-05-21T19:08:34.665Z,97523.63
2023-05-21T19:13:36.801Z,97531.44
2023-05-21T19:18:43.360Z,97541.31
2023-05-21T19:23:53.400Z,97544.34
2023-05-21T19:28:56.715Z,97548.53
2023-05-21T19:33:58.956Z,97550.44
2023-05-21T19:39:01.219Z,97557.50
2023-05-21T19:44:03.508Z,97563.84
2023-05-21T19:49:06.045Z,97561.44
2023-05-21T19:54:08.192Z,97560.44
2023-05-21T19:59:11.707Z,97559.72
2023-05-21T20:04:14.462Z,97562.28
2023-05-21T20:09:18.264Z,97560.28
2023-05-21T20:14:20.531Z,97556.28
2023-05-21T20:19:22.882Z,97564.06
2023-05-21T20:24:25.130Z,97563.56
2023-05-21T20:29:27.337Z,97572.59
2023-05-21T20:34:29.912Z,97569.34
2023-05-21T20:39:32.624Z,97565.84
2023-05-21T20:44:34.830Z,97570.59
2023-05-21T20:49:38.569Z,97569.81
2023-05-21T20:54:40.755Z,97568.81
2023-05-21T20:59:43.555Z,97561.78
2023-05-21T21:04:50.020Z,97574.31
2023-05-21T21:09:52.408Z,97568.28
2023-05-21T21:14:55.559Z,97579.25
2023-05-21T21:19:57.712Z,97580.00
2023-05-21T21:25:00.226Z,97572.25
2023-05-21T21:30:03.151Z,97577.69
2023-05-21T21:35:06.198Z,97575.19
2023-05-21T21:40:09.435Z,97574.28
2023-05-21T21:45:11.976Z,97573.31
2023-05-21T21:50:14.405Z,97575.88
2023-05-21T21:55:16.746Z,97569.34
2023-05-21T22:00:19.419Z,97563.72
2023-05-21T22:05:21.738Z,97573.25
2023-05-21T22:10:23.900Z,97576.38
2023-05-21T22:15:28.852Z,97587.44
2023-05-21T22:20:31.236Z,97602.00
2023-05-21T22:25:33.384Z,97587.22
2023-05-21T22:30:37.927Z,97588.31
2023-05-21T22:35:40.251Z,97580.59
2023-05-21T22:40:42.392Z,97583.78
2023-05-21T22:45:44.911Z,97587.66
2023-05-21T22:50:47.393Z,97589.28
2023-05-21T22:55:52.499Z,97582.25
2023-05-21T23:00:54.657Z,97586.34
2023-05-21T23:05:56.816Z,97585.47
2023-05-21T23:10:59.028Z,97578.97
2023-05-21T23:16:01.424Z,97582.25
2023-05-21T23:21:03.805Z,97581.19
2023-05-21T23:26:06.065Z,97581.09
2023-05-21T23:31:08.296Z,97578.81
2023-05-21T23:36:10.537Z,97582.56
2023-05-21T23:41:13.978Z,97575.63
2023-05-21T23:46:16.472Z,97579.44
2023-05-21T23:51:19.469Z,97573.50
2023-05-21T23:56:21.613Z,97580.53
